sensor_id;sensor_type;location;lat;lon;timestamp;pressure;altitude;pressure_sealevel;temperature;humidity
70544;BME280;58097;48.364;-1.224;2022-07-29T00:01:48;99594.34;;;19.78;52.11
70544;BME280;58097;48.364;-1.224;2022-07-29T00:04:14;99595.50;;;19.70;52.76
70544;BME280;58097;48.364;-1.224;2022-07-29T00:06:40;99594.63;;;19.70;52.83
70544;BME280;58097;48.364;-1.224;2022-07-29T00:09:08;99600.03;;;19.65;51.89
70544;BME280;58097;48.364;-1.224;2022-07-29T00:11:37;99591.84;;;19.63;53.14
70544;BME280;58097;48.364;-1.224;2022-07-29T00:14:04;99590.38;;;19.61;52.35
70544;BME280;58097;48.364;-1.224;2022-07-29T00:16:29;99592.72;;;19.64;52.26
70544;BME280;58097;48.364;-1.224;2022-07-29T00:18:55;99591.44;;;19.66;52.06
70544;BME280;58097;48.364;-1.224;2022-07-29T00:21:20;99586.44;;;19.68;52.22
70544;BME280;58097;48.364;-1.224;2022-07-29T00:23:46;99582.81;;;19.61;52.36
70544;BME280;58097;48.364;-1.224;2022-07-29T00:26:11;99582.81;;;19.61;52.53
70544;BME280;58097;48.364;-1.224;2022-07-29T00:28:37;99579.63;;;19.58;53.15
70544;BME280;58097;48.364;-1.224;2022-07-29T00:31:03;99572.91;;;19.59;52.60
70544;BME280;58097;48.364;-1.224;2022-07-29T00:33:28;99577.66;;;19.58;53.59
70544;BME280;58097;48.364;-1.224;2022-07-29T00:35:54;99569.94;;;19.54;53.26
70544;BME280;58097;48.364;-1.224;2022-07-29T00:38:20;99569.94;;;19.54;52.12
70544;BME280;58097;48.364;-1.224;2022-07-29T00:40:46;99565.84;;;19.49;52.58
70544;BME280;58097;48.364;-1.224;2022-07-29T00:43:14;99564.38;;;19.47;52.42
70544;BME280;58097;48.364;-1.224;2022-07-29T00:45:41;99557.50;;;19.43;53.16
70544;BME280;58097;48.364;-1.224;2022-07-29T00:48:07;99552.53;;;19.45;52.46
70544;BME280;58097;48.364;-1.224;2022-07-29T00:50:34;99555.56;;;19.43;52.94
70544;BME280;58097;48.364;-1.224;2022-07-29T00:53:00;99556.66;;;19.42;53.22
70544;BME280;58097;48.364;-1.224;2022-07-29T00:55:27;99557.50;;;19.43;52.83
70544;BME280;58097;48.364;-1.224;2022-07-29T00:57:52;99558.59;;;19.42;53.29
70544;BME280;58097;48.364;-1.224;2022-07-29T01:00:22;99558.81;;;19.40;53.02
70544;BME280;58097;48.364;-1.224;2022-07-29T01:02:48;99553.84;;;19.42;52.30
70544;BME280;58097;48.364;-1.224;2022-07-29T01:05:16;99551.69;;;19.44;52.90
70544;BME280;58097;48.364;-1.224;2022-07-29T01:07:43;99552.13;;;19.41;52.34
70544;BME280;58097;48.364;-1.224;2022-07-29T01:10:12;99548.00;;;19.44;52.69
70544;BME280;58097;48.364;-1.224;2022-07-29T01:12:39;99552.31;;;19.46;52.91
70544;BME280;58097;48.364;-1.224;2022-07-29T01:15:06;99551.06;;;19.36;52.89
70544;BME280;58097;48.364;-1.224;2022-07-29T01:17:44;99547.88;;;19.32;52.86
70544;BME280;58097;48.364;-1.224;2022-07-29T01:23:37;99554.97;;;19.35;52.38
70544;BME280;58097;48.364;-1.224;2022-07-29T01:26:28;99552.38;;;19.40;52.67
70544;BME280;58097;48.364;-1.224;2022-07-29T01:31:51;99552.78;;;19.37;52.67
70544;BME280;58097;48.364;-1.224;2022-07-29T01:34:29;99546.31;;;19.36;52.18
70544;BME280;58097;48.364;-1.224;2022-07-29T01:37:19;99562.34;;;19.29;52.11
70544;BME280;58097;48.364;-1.224;2022-07-29T01:39:49;99552.44;;;19.27;52.30
70544;BME280;58097;48.364;-1.224;2022-07-29T01:45:26;99555.00;;;19.28;52.46
70544;BME280;58097;48.364;-1.224;2022-07-29T01:48:23;99563.41;;;19.28;52.56
70544;BME280;58097;48.364;-1.224;2022-07-29T01:50:53;99559.53;;;19.29;53.08
70544;BME280;58097;48.364;-1.224;2022-07-29T01:53:33;99560.63;;;19.28;52.44
70544;BME280;58097;48.364;-1.224;2022-07-29T01:56:02;99564.06;;;19.30;52.34
70544;BME280;58097;48.364;-1.224;2022-07-29T01:58:30;99551.13;;;19.29;52.43
70544;BME280;58097;48.364;-1.224;2022-07-29T02:00:59;99554.56;;;19.31;53.15
70544;BME280;58097;48.364;-1.224;2022-07-29T02:03:27;99555.41;;;19.32;52.48
70544;BME280;58097;48.364;-1.224;2022-07-29T02:05:56;99552.63;;;19.32;52.43
70544;BME280;58097;48.364;-1.224;2022-07-29T02:08:25;99556.91;;;19.34;52.83
70544;BME280;58097;48.364;-1.224;2022-07-29T02:10:52;99547.63;;;19.34;52.53
70544;BME280;58097;48.364;-1.224;2022-07-29T02:13:19;99547.19;;;19.37;52.28
70544;BME280;58097;48.364;-1.224;2022-07-29T02:15:46;99542.47;;;19.37;52.58
70544;BME280;58097;48.364;-1.224;2022-07-29T02:18:16;99549.56;;;19.40;52.40
70544;BME280;58097;48.364;-1.224;2022-07-29T02:20:46;99547.63;;;19.40;52.49
70544;BME280;58097;48.364;-1.224;2022-07-29T02:23:14;99557.75;;;19.41;52.25
70544;BME280;58097;48.364;-1.224;2022-07-29T02:25:42;99550.66;;;19.39;52.06
70544;BME280;58097;48.364;-1.224;2022-07-29T02:28:08;99548.94;;;19.38;51.95
70544;BME280;58097;48.364;-1.224;2022-07-29T02:30:40;99555.59;;;19.37;51.97
70544;BME280;58097;48.364;-1.224;2022-07-29T02:33:08;99557.09;;;19.39;51.97
70544;BME280;58097;48.364;-1.224;2022-07-29T02:35:35;99552.59;;;19.38;51.97
70544;BME280;58097;48.364;-1.224;2022-07-29T02:38:02;99562.09;;;19.37;52.25
70544;BME280;58097;48.364;-1.224;2022-07-29T02:40:48;99553.44;;;19.39;52.19
70544;BME280;58097;48.364;-1.224;2022-07-29T02:43:17;99561.00;;;19.38;52.40
70544;BME280;58097;48.364;-1.224;2022-07-29T02:45:44;99555.19;;;19.33;52.62
70544;BME280;58097;48.364;-1.224;2022-07-29T02:48:15;99554.34;;;19.33;52.57
70544;BME280;58097;48.364;-1.224;2022-07-29T02:50:50;99553.47;;;19.32;52.21
70544;BME280;58097;48.364;-1.224;2022-07-29T02:53:20;99563.59;;;19.33;52.19
70544;BME280;58097;48.364;-1.224;2022-07-29T02:56:09;99558.00;;;19.33;52.51
70544;BME280;58097;48.364;-1.224;2022-07-29T02:58:41;99559.28;;;19.37;52.49
70544;BME280;58097;48.364;-1.224;2022-07-29T03:01:12;99557.75;;;19.35;52.39
70544;BME280;58097;48.364;-1.224;2022-07-29T03:03:39;99563.59;;;19.33;52.17
70544;BME280;58097;48.364;-1.224;2022-07-29T03:06:07;99561.19;;;19.37;52.11
70544;BME280;58097;48.364;-1.224;2022-07-29T03:08:34;99557.09;;;19.39;52.54
70544;BME280;58097;48.364;-1.224;2022-07-29T03:11:00;99555.16;;;19.40;52.22
70544;BME280;58097;48.364;-1.224;2022-07-29T03:13:27;99558.38;;;19.43;52.77
70544;BME280;58097;48.364;-1.224;2022-07-29T03:15:55;99562.66;;;19.46;52.60
70544;BME280;58097;48.364;-1.224;2022-07-29T03:18:21;99554.88;;;19.48;52.55
70544;BME280;58097;48.364;-1.224;2022-07-29T03:20:47;99554.03;;;19.47;52.65
70544;BME280;58097;48.364;-1.224;2022-07-29T03:23:19;99553.84;;;19.42;52.44
70544;BME280;58097;48.364;-1.224;2022-07-29T03:25:46;99561.63;;;19.40;52.75
70544;BME280;58097;48.364;-1.224;2022-07-29T03:28:12;99560.13;;;19.38;52.96
70544;BME280;58097;48.364;-1.224;2022-07-29T03:30:37;99563.56;;;19.40;52.43
70544;BME280;58097;48.364;-1.224;2022-07-29T03:33:03;99565.69;;;19.44;53.03
70544;BME280;58097;48.364;-1.224;2022-07-29T03:35:28;99564.44;;;19.40;52.89
70544;BME280;58097;48.364;-1.224;2022-07-29T03:37:57;99556.88;;;19.41;53.26
70544;BME280;58097;48.364;-1.224;2022-07-29T03:40:27;99554.09;;;19.34;53.25
70544;BME280;58097;48.364;-1.224;2022-07-29T03:42:56;99557.34;;;19.31;53.43
70544;BME280;58097;48.364;-1.224;2022-07-29T03:45:23;99555.66;;;19.30;53.31
70544;BME280;58097;48.364;-1.224;2022-07-29T03:47:53;99555.66;;;19.30;53.48
70544;BME280;58097;48.364;-1.224;2022-07-29T03:50:21;99560.63;;;19.28;53.01
70544;BME280;58097;48.364;-1.224;2022-07-29T03:52:47;99562.78;;;19.26;53.47
70544;BME280;58097;48.364;-1.224;2022-07-29T03:55:14;99558.28;;;19.25;53.39
70544;BME280;58097;48.364;-1.224;2022-07-29T03:57:40;99559.59;;;19.23;53.83
70544;BME280;58097;48.364;-1.224;2022-07-29T04:00:07;99561.53;;;19.22;53.63
70544;BME280;58097;48.364;-1.224;2022-07-29T04:02:35;99560.50;;;19.16;54.14
70544;BME280;58097;48.364;-1.224;2022-07-29T04:05:01;99559.00;;;19.14;53.94
70544;BME280;58097;48.364;-1.224;2022-07-29T04:07:26;99563.13;;;19.11;54.36
70544;BME280;58097;48.364;-1.224;2022-07-29T04:09:52;99556.88;;;19.09;53.86
70544;BME280;58097;48.364;-1.224;2022-07-29T04:12:18;99565.06;;;19.11;53.55
70544;BME280;58097;48.364;-1.224;2022-07-29T04:14:43;99567.19;;;19.15;53.72
70544;BME280;58097;48.364;-1.224;2022-07-29T04:17:09;99563.69;;;19.20;53.47
70544;BME280;58097;48.364;-1.224;2022-07-29T04:19:34;99553.97;;;19.23;53.34
70544;BME280;58097;48.364;-1.224;2022-07-29T04:22:00;99562.16;;;19.24;53.75
70544;BME280;58097;48.364;-1.224;2022-07-29T04:24:26;99560.66;;;19.22;53.67
70544;BME280;58097;48.364;-1.224;2022-07-29T04:26:52;99550.31;;;19.22;54.03
70544;BME280;58097;48.364;-1.224;2022-07-29T04:29:18;99555.28;;;19.20;54.04
70544;BME280;58097;48.364;-1.224;2022-07-29T04:31:43;99558.31;;;19.18;53.89
70544;BME280;58097;48.364;-1.224;2022-07-29T04:34:10;99558.09;;;19.20;53.91
70544;BME280;58097;48.364;-1.224;2022-07-29T04:36:35;99557.25;;;19.19;53.96
70544;BME280;58097;48.364;-1.224;2022-07-29T04:39:02;99554.22;;;19.21;53.92
70544;BME280;58097;48.364;-1.224;2022-07-29T04:41:28;99551.19;;;19.23;53.53
70544;BME280;58097;48.364;-1.224;2022-07-29T04:43:54;99557.41;;;19.25;53.87
70544;BME280;58097;48.364;-1.224;2022-07-29T04:46:19;99558.03;;;19.27;53.92
70544;BME280;58097;48.364;-1.224;2022-07-29T04:48:45;99562.16;;;19.24;53.46
70544;BME280;58097;48.364;-1.224;2022-07-29T04:51:12;99558.09;;;19.20;53.89
70544;BME280;58097;48.364;-1.224;2022-07-29T04:53:38;99560.44;;;19.23;53.65
70544;BME280;58097;48.364;-1.224;2022-07-29T04:56:03;99563.25;;;19.23;53.83
70544;BME280;58097;48.364;-1.224;2022-07-29T04:58:29;99568.63;;;19.25;53.43
70544;BME280;58097;48.364;-1.224;2022-07-29T05:00:55;99565.59;;;19.26;53.67
70544;BME280;58097;48.364;-1.224;2022-07-29T05:03:20;99567.94;;;19.29;54.00
70544;BME280;58097;48.364;-1.224;2022-07-29T05:05:46;99564.50;;;19.27;53.50
70544;BME280;58097;48.364;-1.224;2022-07-29T05:08:12;99564.72;;;19.26;53.60
70544;BME280;58097;48.364;-1.224;2022-07-29T05:10:37;99563.41;;;19.28;54.12
70544;BME280;58097;48.364;-1.224;2022-07-29T05:13:06;99567.72;;;19.31;54.12
70544;BME280;58097;48.364;-1.224;2022-07-29T05:15:34;99564.69;;;19.32;53.91
70544;BME280;58097;48.364;-1.224;2022-07-29T05:18:00;99565.09;;;19.36;53.98
70544;BME280;58097;48.364;-1.224;2022-07-29T05:20:27;99568.13;;;19.34;54.01
70544;BME280;58097;48.364;-1.224;2022-07-29T05:22:57;99567.69;;;19.37;54.29
70544;BME280;58097;48.364;-1.224;2022-07-29T05:25:24;99570.50;;;19.37;54.02
70544;BME280;58097;48.364;-1.224;2022-07-29T05:27:51;99576.94;;;19.38;54.31
70544;BME280;58097;48.364;-1.224;2022-07-29T05:30:16;99578.66;;;19.39;54.35
70544;BME280;58097;48.364;-1.224;2022-07-29T05:32:42;99580.63;;;19.38;54.33
70544;BME280;58097;48.364;-1.224;2022-07-29T05:35:08;99589.03;;;19.38;54.25
70544;BME280;58097;48.364;-1.224;2022-07-29T05:37:34;99588.34;;;19.36;54.47
70544;BME280;58097;48.364;-1.224;2022-07-29T05:40:00;99594.81;;;19.37;54.49
70544;BME280;58097;48.364;-1.224;2022-07-29T05:42:25;99591.59;;;19.40;54.83
70544;BME280;58097;48.364;-1.224;2022-07-29T05:44:52;99598.47;;;19.44;55.50
70544;BME280;58097;48.364;-1.224;2022-07-29T05:47:17;99600.41;;;19.43;54.55
70544;BME280;58097;48.364;-1.224;2022-07-29T05:49:43;99602.34;;;19.43;55.18
70544;BME280;58097;48.364;-1.224;2022-07-29T05:52:09;99606.22;;;19.42;54.94
70544;BME280;58097;48.364;-1.224;2022-07-29T05:54:36;99598.84;;;19.47;54.74
70544;BME280;58097;48.364;-1.224;2022-07-29T05:57:01;99602.72;;;19.53;55.24
70544;BME280;58097;48.364;-1.224;2022-07-29T05:59:27;99603.75;;;19.59;55.11
70544;BME280;58097;48.364;-1.224;2022-07-29T06:01:52;99604.38;;;19.61;54.85
70544;BME280;58097;48.364;-1.224;2022-07-29T06:04:18;99606.72;;;19.64;54.73
70544;BME280;58097;48.364;-1.224;2022-07-29T06:06:44;99610.81;;;19.68;54.87
70544;BME280;58097;48.364;-1.224;2022-07-29T06:09:10;99612.47;;;19.75;55.17
70544;BME280;58097;48.364;-1.224;2022-07-29T06:11:36;99611.78;;;19.80;54.98
70544;BME280;58097;48.364;-1.224;2022-07-29T06:14:01;99618.41;;;19.86;56.38
70544;BME280;58097;48.364;-1.224;2022-07-29T06:16:28;99619.91;;;19.88;55.16
70544;BME280;58097;48.364;-1.224;2022-07-29T06:18:54;99616.41;;;19.93;54.19
70544;BME280;58097;48.364;-1.224;2022-07-29T06:21:19;99615.69;;;20.04;53.25
70544;BME280;58097;48.364;-1.224;2022-07-29T06:23:45;99624.25;;;20.09;52.93
70544;BME280;58097;48.364;-1.224;2022-07-29T06:26:10;99630.81;;;20.21;51.99
70544;BME280;58097;48.364;-1.224;2022-07-29T06:28:36;99625.31;;;20.33;51.92
70544;BME280;58097;48.364;-1.224;2022-07-29T06:31:02;99629.56;;;20.42;51.52
70544;BME280;58097;48.364;-1.224;2022-07-29T06:33:27;99643.13;;;20.45;50.43
70544;BME280;58097;48.364;-1.224;2022-07-29T06:35:53;99631.91;;;20.45;49.68
70544;BME280;58097;48.364;-1.224;2022-07-29T06:38:19;99635.69;;;20.57;51.01
70544;BME280;58097;48.364;-1.224;2022-07-29T06:40:45;99632.41;;;20.60;50.89
70544;BME280;58097;48.364;-1.224;2022-07-29T06:43:34;99641.38;;;20.69;49.11
70544;BME280;58097;48.364;-1.224;2022-07-29T06:46:03;99637.94;;;20.67;49.07
70544;BME280;58097;48.364;-1.224;2022-07-29T06:48:29;99635.75;;;20.69;48.54
70544;BME280;58097;48.364;-1.224;2022-07-29T06:50:55;99633.81;;;20.69;49.46
70544;BME280;58097;48.364;-1.224;2022-07-29T06:53:20;99633.25;;;20.79;49.65
70544;BME280;58097;48.364;-1.224;2022-07-29T06:55:46;99640.75;;;20.85;49.88
70544;BME280;58097;48.364;-1.224;2022-07-29T06:58:12;99639.44;;;20.88;49.65
70544;BME280;58097;48.364;-1.224;2022-07-29T07:00:39;99648.38;;;20.96;50.06
70544;BME280;58097;48.364;-1.224;2022-07-29T07:03:04;99647.44;;;21.02;49.87
70544;BME280;58097;48.364;-1.224;2022-07-29T07:05:30;99649.94;;;21.11;49.50
70544;BME280;58097;48.364;-1.224;2022-07-29T07:07:56;99651.19;;;21.15;49.59
70544;BME280;58097;48.364;-1.224;2022-07-29T07:10:21;99661.09;;;21.17;48.64
70544;BME280;58097;48.364;-1.224;2022-07-29T07:12:47;99657.56;;;21.22;48.16
70544;BME280;58097;48.364;-1.224;2022-07-29T07:15:12;99664.22;;;21.27;48.86
70544;BME280;58097;48.364;-1.224;2022-07-29T07:17:38;99661.25;;;21.41;49.10
70544;BME280;58097;48.364;-1.224;2022-07-29T07:20:05;99663.63;;;21.55;49.74
70544;BME280;58097;48.364;-1.224;2022-07-29T07:22:30;99665.53;;;21.73;49.29
70544;BME280;58097;48.364;-1.224;2022-07-29T07:24:56;99667.50;;;21.96;49.36
70544;BME280;58097;48.364;-1.224;2022-07-29T07:27:22;99676.28;;;22.06;49.05
70544;BME280;58097;48.364;-1.224;2022-07-29T07:29:48;99675.31;;;22.12;47.63
70544;BME280;58097;48.364;-1.224;2022-07-29T07:32:14;99673.22;;;22.08;46.78
70544;BME280;58097;48.364;-1.224;2022-07-29T07:34:42;99677.25;;;22.12;47.34
70544;BME280;58097;48.364;-1.224;2022-07-29T07:37:08;99674.81;;;22.15;47.54
70544;BME280;58097;48.364;-1.224;2022-07-29T07:39:34;99676.91;;;22.20;47.07
70544;BME280;58097;48.364;-1.224;2022-07-29T07:42:00;99677.88;;;22.14;46.84
70544;BME280;58097;48.364;-1.224;2022-07-29T07:44:25;99684.00;;;22.11;47.06
70544;BME280;58097;48.364;-1.224;2022-07-29T07:46:51;99684.84;;;22.23;47.86
70544;BME280;58097;48.364;-1.224;2022-07-29T07:49:17;99682.31;;;22.33;46.74
70544;BME280;58097;48.364;-1.224;2022-07-29T07:51:42;99684.41;;;22.38;48.21
70544;BME280;58097;48.364;-1.224;2022-07-29T07:54:08;99681.22;;;22.46;46.73
70544;BME280;58097;48.364;-1.224;2022-07-29T07:56:34;99683.44;;;22.55;48.16
70544;BME280;58097;48.364;-1.224;2022-07-29T07:58:59;99691.50;;;22.64;46.29
70544;BME280;58097;48.364;-1.224;2022-07-29T08:01:25;99686.34;;;22.72;48.04
70544;BME280;58097;48.364;-1.224;2022-07-29T08:03:50;99688.78;;;22.80;45.27
70544;BME280;58097;48.364;-1.224;2022-07-29T08:06:16;99688.06;;;22.97;47.25
70544;BME280;58097;48.364;-1.224;2022-07-29T08:08:42;99688.03;;;23.08;47.56
70544;BME280;58097;48.364;-1.224;2022-07-29T08:11:07;99689.63;;;23.16;46.95
70544;BME280;58097;48.364;-1.224;2022-07-29T08:13:33;99687.53;;;23.23;46.98
70544;BME280;58097;48.364;-1.224;2022-07-29T08:15:59;99686.97;;;23.38;46.71
70544;BME280;58097;48.364;-1.224;2022-07-29T08:18:28;99690.03;;;23.48;46.47
70544;BME280;58097;48.364;-1.224;2022-07-29T08:20:54;99691.78;;;23.77;45.99
70544;BME280;58097;48.364;-1.224;2022-07-29T08:23:20;99688.06;;;24.05;44.69
70544;BME280;58097;48.364;-1.224;2022-07-29T08:25:46;99694.06;;;24.09;45.08
70544;BME280;58097;48.364;-1.224;2022-07-29T08:28:12;99694.81;;;24.21;45.18
70544;BME280;58097;48.364;-1.224;2022-07-29T08:30:38;99696.72;;;24.16;43.64
70544;BME280;58097;48.364;-1.224;2022-07-29T08:33:03;99690.28;;;24.20;44.63
70544;BME280;58097;48.364;-1.224;2022-07-29T08:35:29;99704.13;;;24.33;45.38
70544;BME280;58097;48.364;-1.224;2022-07-29T08:37:54;99703.94;;;24.40;45.79
70544;BME280;58097;48.364;-1.224;2022-07-29T08:40:22;99712.84;;;24.49;45.54
70544;BME280;58097;48.364;-1.224;2022-07-29T08:42:49;99702.13;;;24.51;45.80
70544;BME280;58097;48.364;-1.224;2022-07-29T08:45:15;99706.94;;;24.50;46.33
70544;BME280;58097;48.364;-1.224;2022-07-29T08:47:40;99701.63;;;24.54;44.81
70544;BME280;58097;48.364;-1.224;2022-07-29T08:50:10;99705.75;;;24.63;46.09
70544;BME280;58097;48.364;-1.224;2022-07-29T08:52:39;99713.19;;;24.69;45.77
70544;BME280;58097;48.364;-1.224;2022-07-29T08:55:07;99717.19;;;24.73;44.77
70544;BME280;58097;48.364;-1.224;2022-07-29T08:57:33;99726.00;;;24.77;45.71
70544;BME280;58097;48.364;-1.224;2022-07-29T09:00:02;99728.66;;;24.83;46.18
70544;BME280;58097;48.364;-1.224;2022-07-29T09:02:40;99726.25;;;24.92;44.44
70544;BME280;58097;48.364;-1.224;2022-07-29T09:05:07;99728.56;;;24.95;44.55
70544;BME280;58097;48.364;-1.224;2022-07-29T09:07:33;99719.81;;;24.96;44.45
70544;BME280;58097;48.364;-1.224;2022-07-29T09:10:00;99725.84;;;25.00;44.71
70544;BME280;58097;48.364;-1.224;2022-07-29T09:12:26;99727.88;;;25.05;44.64
70544;BME280;58097;48.364;-1.224;2022-07-29T09:14:52;99739.00;;;25.11;44.74
70544;BME280;58097;48.364;-1.224;2022-07-29T09:17:17;99733.34;;;25.11;44.32
70544;BME280;58097;48.364;-1.224;2022-07-29T09:19:44;99734.28;;;25.17;44.06
70544;BME280;58097;48.364;-1.224;2022-07-29T09:22:10;99734.34;;;25.22;44.45
70544;BME280;58097;48.364;-1.224;2022-07-29T09:24:45;99735.81;;;25.24;45.16
70544;BME280;58097;48.364;-1.224;2022-07-29T09:27:32;99740.69;;;25.29;44.58
70544;BME280;58097;48.364;-1.224;2022-07-29T09:30:06;99742.19;;;25.37;44.92
70544;BME280;58097;48.364;-1.224;2022-07-29T09:32:33;99734.63;;;25.42;44.84
70544;BME280;58097;48.364;-1.224;2022-07-29T09:35:23;99736.47;;;25.53;44.86
70544;BME280;58097;48.364;-1.224;2022-07-29T09:37:49;99741.94;;;25.60;43.25
70544;BME280;58097;48.364;-1.224;2022-07-29T09:40:23;99742.72;;;25.55;43.01
70544;BME280;58097;48.364;-1.224;2022-07-29T09:42:50;99736.81;;;25.57;43.34
70544;BME280;58097;48.364;-1.224;2022-07-29T09:45:36;99744.44;;;25.56;44.08
70544;BME280;58097;48.364;-1.224;2022-07-29T09:48:20;99743.59;;;25.56;43.27
70544;BME280;58097;48.364;-1.224;2022-07-29T09:50:47;99741.00;;;25.54;42.88
70544;BME280;58097;48.364;-1.224;2022-07-29T09:53:36;99748.44;;;25.60;43.67
70544;BME280;58097;48.364;-1.224;2022-07-29T09:56:03;99744.47;;;25.78;43.96
70544;BME280;58097;48.364;-1.224;2022-07-29T09:58:28;99741.00;;;25.98;42.92
70544;BME280;58097;48.364;-1.224;2022-07-29T10:00:55;99746.66;;;26.25;43.67
70544;BME280;58097;48.364;-1.224;2022-07-29T10:03:23;99750.50;;;26.68;42.86
70544;BME280;58097;48.364;-1.224;2022-07-29T10:06:09;99746.44;;;26.91;43.62
70544;BME280;58097;48.364;-1.224;2022-07-29T10:08:36;99748.94;;;27.19;43.39
70544;BME280;58097;48.364;-1.224;2022-07-29T10:11:22;99755.41;;;27.62;41.63
70544;BME280;58097;48.364;-1.224;2022-07-29T10:13:48;99745.22;;;27.66;41.49
70544;BME280;58097;48.364;-1.224;2022-07-29T10:16:15;99751.53;;;27.78;41.30
70544;BME280;58097;48.364;-1.224;2022-07-29T10:18:42;99741.53;;;27.75;39.94
70544;BME280;58097;48.364;-1.224;2022-07-29T10:21:10;99752.09;;;27.80;39.21
70544;BME280;58097;48.364;-1.224;2022-07-29T10:23:36;99752.66;;;27.82;40.46
70544;BME280;58097;48.364;-1.224;2022-07-29T10:26:04;99747.56;;;27.89;39.96
70544;BME280;58097;48.364;-1.224;2022-07-29T10:28:30;99760.66;;;27.95;39.79
70544;BME280;58097;48.364;-1.224;2022-07-29T10:31:02;99753.28;;;27.99;39.93
70544;BME280;58097;48.364;-1.224;2022-07-29T10:33:56;99756.13;;;28.04;40.03
70544;BME280;58097;48.364;-1.224;2022-07-29T10:36:41;99761.78;;;27.94;39.26
70544;BME280;58097;48.364;-1.224;2022-07-29T10:42:23;99777.03;;;27.21;38.93
70544;BME280;58097;48.364;-1.224;2022-07-29T10:44:51;99775.16;;;26.99;39.30
70544;BME280;58097;48.364;-1.224;2022-07-29T10:47:25;99774.09;;;26.78;39.88
70544;BME280;58097;48.364;-1.224;2022-07-29T10:49:59;99764.66;;;26.68;40.51
70544;BME280;58097;48.364;-1.224;2022-07-29T10:52:51;99774.69;;;26.48;40.50
70544;BME280;58097;48.364;-1.224;2022-07-29T10:55:38;99768.34;;;26.36;40.70
70544;BME280;58097;48.364;-1.224;2022-07-29T10:58:22;99776.50;;;26.33;41.08
70544;BME280;58097;48.364;-1.224;2022-07-29T11:00:50;99775.84;;;26.25;41.20
70544;BME280;58097;48.364;-1.224;2022-07-29T11:06:21;99768.72;;;25.96;41.09
70544;BME280;58097;48.364;-1.224;2022-07-29T11:11:56;99778.66;;;25.99;41.45
70544;BME280;58097;48.364;-1.224;2022-07-29T11:17:28;99774.69;;;26.00;41.78
70544;BME280;58097;48.364;-1.224;2022-07-29T11:22:59;99778.47;;;26.05;41.92
70544;BME280;58097;48.364;-1.224;2022-07-29T11:25:25;99778.56;;;26.15;41.74
70544;BME280;58097;48.364;-1.224;2022-07-29T11:27:52;99777.81;;;26.25;42.19
70544;BME280;58097;48.364;-1.224;2022-07-29T11:30:19;99777.97;;;26.35;42.00
70544;BME280;58097;48.364;-1.224;2022-07-29T11:32:45;99779.81;;;26.51;42.31
70544;BME280;58097;48.364;-1.224;2022-07-29T11:35:20;99784.53;;;26.73;42.45
70544;BME280;58097;48.364;-1.224;2022-07-29T11:41:23;99788.47;;;26.99;41.18
70544;BME280;58097;48.364;-1.224;2022-07-29T11:43:56;99789.69;;;27.08;40.94
70544;BME280;58097;48.364;-1.224;2022-07-29T11:49:08;99790.09;;;27.27;39.42
70544;BME280;58097;48.364;-1.224;2022-07-29T11:51:36;99789.81;;;27.28;39.47
70544;BME280;58097;48.364;-1.224;2022-07-29T11:54:03;99781.38;;;27.38;40.53
70544;BME280;58097;48.364;-1.224;2022-07-29T11:56:31;99787.16;;;27.59;40.52
70544;BME280;58097;48.364;-1.224;2022-07-29T11:59:04;99783.63;;;27.89;39.42
70544;BME280;58097;48.364;-1.224;2022-07-29T12:01:30;99788.50;;;28.03;37.12
70544;BME280;58097;48.364;-1.224;2022-07-29T12:04:17;99787.50;;;28.40;38.23
70544;BME280;58097;48.364;-1.224;2022-07-29T12:06:42;99777.56;;;28.53;37.19
70544;BME280;58097;48.364;-1.224;2022-07-29T12:09:08;99779.59;;;28.62;37.72
70544;BME280;58097;48.364;-1.224;2022-07-29T12:11:34;99776.47;;;28.64;37.26
70544;BME280;58097;48.364;-1.224;2022-07-29T12:14:00;99779.00;;;28.55;38.35
70544;BME280;58097;48.364;-1.224;2022-07-29T12:16:47;99792.59;;;28.33;36.58
70544;BME280;58097;48.364;-1.224;2022-07-29T12:19:13;99790.03;;;28.31;38.31
70544;BME280;58097;48.364;-1.224;2022-07-29T12:21:46;99792.59;;;28.33;37.76
70544;BME280;58097;48.364;-1.224;2022-07-29T12:24:12;99788.56;;;28.19;36.22
70544;BME280;58097;48.364;-1.224;2022-07-29T12:26:55;99782.59;;;28.15;36.21
70544;BME280;58097;48.364;-1.224;2022-07-29T12:29:21;99795.59;;;28.01;35.97
70544;BME280;58097;48.364;-1.224;2022-07-29T12:31:51;99791.88;;;27.95;35.94
70544;BME280;58097;48.364;-1.224;2022-07-29T12:34:20;99787.34;;;27.94;35.07
70544;BME280;58097;48.364;-1.224;2022-07-29T12:36:48;99795.19;;;27.72;33.39
70544;BME280;58097;48.364;-1.224;2022-07-29T12:39:15;99800.38;;;27.38;35.15
70544;BME280;58097;48.364;-1.224;2022-07-29T12:41:41;99798.50;;;27.54;35.87
70544;BME280;58097;48.364;-1.224;2022-07-29T12:44:07;99805.88;;;27.55;34.68
70544;BME280;58097;48.364;-1.224;2022-07-29T12:46:33;99801.63;;;27.57;34.83
70544;BME280;58097;48.364;-1.224;2022-07-29T12:48:58;99800.84;;;27.67;35.13
70544;BME280;58097;48.364;-1.224;2022-07-29T12:51:44;99807.97;;;27.74;34.89
70544;BME280;58097;48.364;-1.224;2022-07-29T12:54:11;99811.16;;;27.78;35.12
70544;BME280;58097;48.364;-1.224;2022-07-29T12:56:39;99805.47;;;27.78;36.36
70544;BME280;58097;48.364;-1.224;2022-07-29T12:59:25;99799.75;;;27.73;35.91
70544;BME280;58097;48.364;-1.224;2022-07-29T13:01:51;99809.47;;;27.82;35.62
70544;BME280;58097;48.364;-1.224;2022-07-29T13:04:30;99807.22;;;27.94;34.97
70544;BME280;58097;48.364;-1.224;2022-07-29T13:09:41;99798.28;;;28.33;33.91
70544;BME280;58097;48.364;-1.224;2022-07-29T13:12:09;99805.19;;;28.73;35.22
70544;BME280;58097;48.364;-1.224;2022-07-29T13:17:05;99798.97;;;28.96;34.99
70544;BME280;58097;48.364;-1.224;2022-07-29T13:19:41;99795.81;;;29.13;36.18
70544;BME280;58097;48.364;-1.224;2022-07-29T13:22:10;99794.38;;;28.75;32.73
70544;BME280;58097;48.364;-1.224;2022-07-29T13:27:26;99778.75;;;29.03;34.73
70544;BME280;58097;48.364;-1.224;2022-07-29T13:29:54;99787.53;;;29.26;33.81
70544;BME280;58097;48.364;-1.224;2022-07-29T13:32:23;99786.69;;;29.26;32.81
70544;BME280;58097;48.364;-1.224;2022-07-29T13:34:49;99785.56;;;29.27;33.24
70544;BME280;58097;48.364;-1.224;2022-07-29T13:37:15;99780.13;;;29.30;32.67